sensor_id;sensor_type;location;lat;lon;timestamp;P1;durP1;ratioP1;P2;durP2;ratioP2
78169;SDS011;67412;49.892;14.490;2023-11-21T00:00:31;4.07;;;1.30;;
78169;SDS011;67412;49.892;14.490;2023-11-21T00:02:57;4.07;;;1.23;;
78169;SDS011;67412;49.892;14.490;2023-11-21T00:05:22;6.93;;;1.23;;
78169;SDS011;67412;49.892;14.490;2023-11-21T00:07:48;8.10;;;1.40;;
78169;SDS011;67412;49.892;14.490;2023-11-21T00:10:13;6.93;;;1.13;;
78169;SDS011;67412;49.892;14.490;2023-11-21T00:12:39;3.67;;;1.20;;
78169;SDS011;67412;49.892;14.490;2023-11-21T00:15:07;4.32;;;1.10;;
78169;SDS011;67412;49.892;14.490;2023-11-21T00:17:37;4.82;;;1.27;;
78169;SDS011;67412;49.892;14.490;2023-11-21T00:20:03;5.05;;;1.13;;
78169;SDS011;67412;49.892;14.490;2023-11-21T00:22:31;4.15;;;1.10;;
78169;SDS011;67412;49.892;14.490;2023-11-21T00:24:57;2.00;;;1.00;;
78169;SDS011;67412;49.892;14.490;2023-11-21T00:27:22;4.85;;;1.10;;
78169;SDS011;67412;49.892;14.490;2023-11-21T00:29:48;3.78;;;1.10;;
78169;SDS011;67412;49.892;14.490;2023-11-21T00:32:13;3.85;;;0.98;;
78169;SDS011;67412;49.892;14.490;2023-11-21T00:34:38;2.20;;;1.00;;
78169;SDS011;67412;49.892;14.490;2023-11-21T00:37:05;4.25;;;1.50;;
78169;SDS011;67412;49.892;14.490;2023-11-21T00:39:30;2.42;;;1.05;;
78169;SDS011;67412;49.892;14.490;2023-11-21T00:41:55;2.88;;;1.02;;
78169;SDS011;67412;49.892;14.490;2023-11-21T00:44:20;4.22;;;1.10;;
78169;SDS011;67412;49.892;14.490;2023-11-21T00:46:46;2.28;;;0.95;;
78169;SDS011;67412;49.892;14.490;2023-11-21T00:49:11;4.35;;;1.30;;
78169;SDS011;67412;49.892;14.490;2023-11-21T00:51:36;4.28;;;1.10;;
78169;SDS011;67412;49.892;14.490;2023-11-21T00:54:02;4.40;;;1.20;;
78169;SDS011;67412;49.892;14.490;2023-11-21T00:56:27;4.28;;;1.20;;
78169;SDS011;67412;49.892;14.490;2023-11-21T00:58:53;4.97;;;1.08;;
78169;SDS011;67412;49.892;14.490;2023-11-21T01:01:19;3.88;;;1.00;;
78169;SDS011;67412;49.892;14.490;2023-11-21T01:03:48;2.58;;;0.93;;
78169;SDS011;67412;49.892;14.490;2023-11-21T01:06:13;3.30;;;1.08;;
78169;SDS011;67412;49.892;14.490;2023-11-21T01:08:39;4.93;;;1.15;;
78169;SDS011;67412;49.892;14.490;2023-11-21T01:11:05;5.70;;;1.33;;
78169;SDS011;67412;49.892;14.490;2023-11-21T01:13:33;3.58;;;1.20;;
78169;SDS011;67412;49.892;14.490;2023-11-21T01:15:58;3.90;;;1.00;;
78169;SDS011;67412;49.892;14.490;2023-11-21T01:18:24;5.10;;;1.45;;
78169;SDS011;67412;49.892;14.490;2023-11-21T01:20:50;3.00;;;1.00;;
78169;SDS011;67412;49.892;14.490;2023-11-21T01:23:17;4.88;;;1.25;;
78169;SDS011;67412;49.892;14.490;2023-11-21T01:25:43;4.70;;;1.25;;
78169;SDS011;67412;49.892;14.490;2023-11-21T01:28:08;3.72;;;0.93;;
78169;SDS011;67412;49.892;14.490;2023-11-21T01:30:33;4.13;;;0.93;;
78169;SDS011;67412;49.892;14.490;2023-11-21T01:33:00;2.35;;;0.80;;
78169;SDS011;67412;49.892;14.490;2023-11-21T01:35:26;4.15;;;1.10;;
78169;SDS011;67412;49.892;14.490;2023-11-21T01:37:51;3.22;;;0.90;;
78169;SDS011;67412;49.892;14.490;2023-11-21T01:40:16;3.40;;;0.88;;
78169;SDS011;67412;49.892;14.490;2023-11-21T01:42:42;6.18;;;1.30;;
78169;SDS011;67412;49.892;14.490;2023-11-21T01:45:09;3.10;;;0.90;;
78169;SDS011;67412;49.892;14.490;2023-11-21T01:47:35;3.67;;;1.15;;
78169;SDS011;67412;49.892;14.490;2023-11-21T01:50:01;3.05;;;1.00;;
78169;SDS011;67412;49.892;14.490;2023-11-21T01:52:30;4.25;;;1.05;;
78169;SDS011;67412;49.892;14.490;2023-11-21T01:54:57;5.60;;;1.40;;
78169;SDS011;67412;49.892;14.490;2023-11-21T01:57:24;2.55;;;1.20;;
78169;SDS011;67412;49.892;14.490;2023-11-21T01:59:49;5.22;;;1.20;;
78169;SDS011;67412;49.892;14.490;2023-11-21T02:02:19;4.55;;;1.25;;
78169;SDS011;67412;49.892;14.490;2023-11-21T02:04:44;1.90;;;1.02;;
78169;SDS011;67412;49.892;14.490;2023-11-21T02:07:10;4.43;;;1.13;;
78169;SDS011;67412;49.892;14.490;2023-11-21T02:09:35;3.60;;;1.08;;
78169;SDS011;67412;49.892;14.490;2023-11-21T02:12:03;2.47;;;0.90;;
78169;SDS011;67412;49.892;14.490;2023-11-21T02:14:30;5.25;;;1.30;;
78169;SDS011;67412;49.892;14.490;2023-11-21T02:16:55;6.13;;;1.10;;
78169;SDS011;67412;49.892;14.490;2023-11-21T02:19:26;3.92;;;1.10;;
78169;SDS011;67412;49.892;14.490;2023-11-21T02:21:52;4.68;;;0.95;;
78169;SDS011;67412;49.892;14.490;2023-11-21T02:24:21;4.50;;;1.17;;
78169;SDS011;67412;49.892;14.490;2023-11-21T02:26:47;3.92;;;1.13;;
78169;SDS011;67412;49.892;14.490;2023-11-21T02:29:13;3.85;;;1.00;;
78169;SDS011;67412;49.892;14.490;2023-11-21T02:31:41;2.17;;;1.10;;
78169;SDS011;67412;49.892;14.490;2023-11-21T02:34:16;4.18;;;0.95;;
78169;SDS011;67412;49.892;14.490;2023-11-21T02:36:42;3.50;;;1.10;;
78169;SDS011;67412;49.892;14.490;2023-11-21T02:39:09;3.25;;;1.10;;
78169;SDS011;67412;49.892;14.490;2023-11-21T02:41:36;1.95;;;1.00;;
78169;SDS011;67412;49.892;14.490;2023-11-21T02:44:07;4.30;;;1.50;;
78169;SDS011;67412;49.892;14.490;2023-11-21T02:46:33;2.05;;;0.80;;
78169;SDS011;67412;49.892;14.490;2023-11-21T02:49:03;3.05;;;1.23;;
78169;SDS011;67412;49.892;14.490;2023-11-21T02:51:29;4.07;;;1.30;;
78169;SDS011;67412;49.892;14.490;2023-11-21T02:53:54;4.05;;;1.08;;
78169;SDS011;67412;49.892;14.490;2023-11-21T02:56:23;2.17;;;1.08;;
78169;SDS011;67412;49.892;14.490;2023-11-21T02:58:49;2.47;;;1.00;;
78169;SDS011;67412;49.892;14.490;2023-11-21T03:01:14;3.90;;;0.90;;
78169;SDS011;67412;49.892;14.490;2023-11-21T03:03:40;2.90;;;0.95;;
78169;SDS011;67412;49.892;14.490;2023-11-21T03:06:06;5.43;;;1.20;;
78169;SDS011;67412;49.892;14.490;2023-11-21T03:08:32;3.58;;;0.90;;
78169;SDS011;67412;49.892;14.490;2023-11-21T03:10:58;3.13;;;0.80;;
78169;SDS011;67412;49.892;14.490;2023-11-21T03:13:23;4.95;;;1.15;;
78169;SDS011;67412;49.892;14.490;2023-11-21T03:15:48;2.92;;;1.05;;
78169;SDS011;67412;49.892;14.490;2023-11-21T03:18:14;4.10;;;1.10;;
78169;SDS011;67412;49.892;14.490;2023-11-21T03:20:39;3.10;;;0.90;;
78169;SDS011;67412;49.892;14.490;2023-11-21T03:23:04;4.38;;;1.10;;
78169;SDS011;67412;49.892;14.490;2023-11-21T03:25:30;1.45;;;0.50;;
78169;SDS011;67412;49.892;14.490;2023-11-21T03:27:56;2.33;;;0.88;;
78169;SDS011;67412;49.892;14.490;2023-11-21T03:30:21;2.15;;;0.80;;
78169;SDS011;67412;49.892;14.490;2023-11-21T03:32:46;4.40;;;0.93;;
78169;SDS011;67412;49.892;14.490;2023-11-21T03:35:12;4.97;;;1.00;;
78169;SDS011;67412;49.892;14.490;2023-11-21T03:37:37;2.15;;;0.95;;
78169;SDS011;67412;49.892;14.490;2023-11-21T03:40:06;3.35;;;0.80;;
78169;SDS011;67412;49.892;14.490;2023-11-21T03:42:33;1.48;;;0.77;;
78169;SDS011;67412;49.892;14.490;2023-11-21T03:44:58;3.03;;;1.02;;
78169;SDS011;67412;49.892;14.490;2023-11-21T03:47:24;2.35;;;0.90;;
78169;SDS011;67412;49.892;14.490;2023-11-21T03:49:49;3.95;;;0.82;;
78169;SDS011;67412;49.892;14.490;2023-11-21T03:52:14;3.38;;;0.90;;
78169;SDS011;67412;49.892;14.490;2023-11-21T03:54:40;2.83;;;0.93;;
78169;SDS011;67412;49.892;14.490;2023-11-21T03:57:05;4.55;;;1.08;;
78169;SDS011;67412;49.892;14.490;2023-11-21T03:59:30;3.67;;;1.13;;
78169;SDS011;67412;49.892;14.490;2023-11-21T04:01:56;2.97;;;1.00;;
78169;SDS011;67412;49.892;14.490;2023-11-21T04:04:22;2.30;;;0.98;;
78169;SDS011;67412;49.892;14.490;2023-11-21T04:06:47;4.00;;;1.00;;
78169;SDS011;67412;49.892;14.490;2023-11-21T04:09:13;2.85;;;0.95;;
78169;SDS011;67412;49.892;14.490;2023-11-21T04:11:38;3.15;;;1.00;;
78169;SDS011;67412;49.892;14.490;2023-11-21T04:14:03;3.13;;;0.98;;
78169;SDS011;67412;49.892;14.490;2023-11-21T04:16:29;3.45;;;0.70;;
78169;SDS011;67412;49.892;14.490;2023-11-21T04:18:54;3.15;;;0.80;;
78169;SDS011;67412;49.892;14.490;2023-11-21T04:21:19;4.13;;;0.95;;
78169;SDS011;67412;49.892;14.490;2023-11-21T04:23:45;2.47;;;0.80;;
78169;SDS011;67412;49.892;14.490;2023-11-21T04:26:10;3.78;;;1.13;;
78169;SDS011;67412;49.892;14.490;2023-11-21T04:28:35;3.05;;;1.00;;
78169;SDS011;67412;49.892;14.490;2023-11-21T04:31:01;1.42;;;0.70;;
78169;SDS011;67412;49.892;14.490;2023-11-21T04:33:26;4.28;;;1.08;;
78169;SDS011;67412;49.892;14.490;2023-11-21T04:35:51;2.13;;;1.05;;
78169;SDS011;67412;49.892;14.490;2023-11-21T04:38:17;3.33;;;0.90;;
78169;SDS011;67412;49.892;14.490;2023-11-21T04:40:42;4.05;;;1.00;;
78169;SDS011;67412;49.892;14.490;2023-11-21T04:43:07;3.50;;;0.90;;
78169;SDS011;67412;49.892;14.490;2023-11-21T04:45:33;3.50;;;0.82;;
78169;SDS011;67412;49.892;14.490;2023-11-21T04:47:58;2.67;;;0.77;;
78169;SDS011;67412;49.892;14.490;2023-11-21T04:50:23;0.98;;;0.50;;
78169;SDS011;67412;49.892;14.490;2023-11-21T04:52:51;4.82;;;1.15;;
78169;SDS011;67412;49.892;14.490;2023-11-21T04:55:16;1.85;;;0.68;;
78169;SDS011;67412;49.892;14.490;2023-11-21T04:57:41;3.45;;;0.85;;
78169;SDS011;67412;49.892;14.490;2023-11-21T05:00:07;2.65;;;0.90;;
78169;SDS011;67412;49.892;14.490;2023-11-21T05:02:34;1.52;;;0.88;;
78169;SDS011;67412;49.892;14.490;2023-11-21T05:05:00;3.95;;;0.88;;
78169;SDS011;67412;49.892;14.490;2023-11-21T05:07:25;1.83;;;0.80;;
78169;SDS011;67412;49.892;14.490;2023-11-21T05:09:53;1.52;;;0.75;;
78169;SDS011;67412;49.892;14.490;2023-11-21T05:12:20;3.85;;;0.88;;
78169;SDS011;67412;49.892;14.490;2023-11-21T05:14:47;5.30;;;1.02;;
78169;SDS011;67412;49.892;14.490;2023-11-21T05:17:13;1.25;;;0.70;;
78169;SDS011;67412;49.892;14.490;2023-11-21T05:19:39;5.18;;;1.05;;
78169;SDS011;67412;49.892;14.490;2023-11-21T05:22:05;3.35;;;1.10;;
78169;SDS011;67412;49.892;14.490;2023-11-21T05:24:30;2.60;;;0.90;;
78169;SDS011;67412;49.892;14.490;2023-11-21T05:26:56;5.20;;;1.15;;
78169;SDS011;67412;49.892;14.490;2023-11-21T05:29:21;2.83;;;0.90;;
78169;SDS011;67412;49.892;14.490;2023-11-21T05:31:47;16.55;;;1.02;;
78169;SDS011;67412;49.892;14.490;2023-11-21T05:34:12;3.50;;;0.82;;
78169;SDS011;67412;49.892;14.490;2023-11-21T05:36:37;5.80;;;0.80;;
78169;SDS011;67412;49.892;14.490;2023-11-21T05:39:03;2.85;;;0.80;;
78169;SDS011;67412;49.892;14.490;2023-11-21T05:41:29;2.47;;;0.90;;
78169;SDS011;67412;49.892;14.490;2023-11-21T05:43:55;2.40;;;0.95;;
78169;SDS011;67412;49.892;14.490;2023-11-21T05:46:20;6.30;;;1.30;;
78169;SDS011;67412;49.892;14.490;2023-11-21T05:48:45;3.80;;;0.95;;
78169;SDS011;67412;49.892;14.490;2023-11-21T05:51:11;1.63;;;0.70;;
78169;SDS011;67412;49.892;14.490;2023-11-21T05:53:38;3.05;;;1.00;;
78169;SDS011;67412;49.892;14.490;2023-11-21T05:56:04;4.13;;;1.00;;
78169;SDS011;67412;49.892;14.490;2023-11-21T05:58:29;3.47;;;1.23;;
78169;SDS011;67412;49.892;14.490;2023-11-21T06:00:55;1.75;;;0.70;;
78169;SDS011;67412;49.892;14.490;2023-11-21T06:03:20;2.78;;;0.80;;
78169;SDS011;67412;49.892;14.490;2023-11-21T06:05:45;2.45;;;0.88;;
78169;SDS011;67412;49.892;14.490;2023-11-21T06:08:11;3.88;;;0.98;;
78169;SDS011;67412;49.892;14.490;2023-11-21T06:10:36;5.72;;;1.00;;
78169;SDS011;67412;49.892;14.490;2023-11-21T06:13:01;3.15;;;1.00;;
78169;SDS011;67412;49.892;14.490;2023-11-21T06:15:28;3.95;;;1.00;;
78169;SDS011;67412;49.892;14.490;2023-11-21T06:17:54;3.97;;;1.10;;
78169;SDS011;67412;49.892;14.490;2023-11-21T06:20:19;4.80;;;1.10;;
78169;SDS011;67412;49.892;14.490;2023-11-21T06:22:46;3.17;;;0.80;;
78169;SDS011;67412;49.892;14.490;2023-11-21T06:25:13;2.28;;;0.88;;
78169;SDS011;67412;49.892;14.490;2023-11-21T06:27:39;3.72;;;0.80;;
78169;SDS011;67412;49.892;14.490;2023-11-21T06:32:31;3.15;;;0.90;;
78169;SDS011;67412;49.892;14.490;2023-11-21T06:34:57;4.53;;;1.25;;
78169;SDS011;67412;49.892;14.490;2023-11-21T06:37:24;2.85;;;1.00;;
78169;SDS011;67412;49.892;14.490;2023-11-21T06:39:51;3.20;;;1.00;;
78169;SDS011;67412;49.892;14.490;2023-11-21T06:42:17;4.28;;;1.33;;
78169;SDS011;67412;49.892;14.490;2023-11-21T06:44:44;3.22;;;0.98;;
78169;SDS011;67412;49.892;14.490;2023-11-21T06:47:10;2.60;;;1.13;;
78169;SDS011;67412;49.892;14.490;2023-11-21T06:49:35;7.75;;;1.10;;
78169;SDS011;67412;49.892;14.490;2023-11-21T06:52:01;3.95;;;1.13;;
78169;SDS011;67412;49.892;14.490;2023-11-21T06:54:28;4.90;;;1.15;;
78169;SDS011;67412;49.892;14.490;2023-11-21T06:56:54;3.03;;;0.95;;
78169;SDS011;67412;49.892;14.490;2023-11-21T06:59:19;2.38;;;0.90;;
78169;SDS011;67412;49.892;14.490;2023-11-21T07:01:44;2.55;;;0.90;;
78169;SDS011;67412;49.892;14.490;2023-11-21T07:04:10;2.78;;;1.00;;
78169;SDS011;67412;49.892;14.490;2023-11-21T07:06:35;2.78;;;1.05;;
78169;SDS011;67412;49.892;14.490;2023-11-21T07:09:00;5.05;;;1.40;;
78169;SDS011;67412;49.892;14.490;2023-11-21T07:11:26;4.40;;;1.13;;
78169;SDS011;67412;49.892;14.490;2023-11-21T07:13:52;3.40;;;1.25;;
78169;SDS011;67412;49.892;14.490;2023-11-21T07:16:18;3.42;;;1.30;;
78169;SDS011;67412;49.892;14.490;2023-11-21T07:18:43;5.28;;;1.10;;
78169;SDS011;67412;49.892;14.490;2023-11-21T07:21:09;3.97;;;1.00;;
78169;SDS011;67412;49.892;14.490;2023-11-21T07:23:36;3.83;;;1.38;;
78169;SDS011;67412;49.892;14.490;2023-11-21T07:26:02;3.58;;;1.00;;
78169;SDS011;67412;49.892;14.490;2023-11-21T07:28:27;4.80;;;1.55;;
78169;SDS011;67412;49.892;14.490;2023-11-21T07:30:54;3.42;;;1.33;;
78169;SDS011;67412;49.892;14.490;2023-11-21T07:33:19;4.15;;;1.13;;
78169;SDS011;67412;49.892;14.490;2023-11-21T07:35:46;4.65;;;1.13;;
78169;SDS011;67412;49.892;14.490;2023-11-21T07:38:11;4.82;;;1.20;;
78169;SDS011;67412;49.892;14.490;2023-11-21T07:40:37;2.75;;;0.90;;
78169;SDS011;67412;49.892;14.490;2023-11-21T07:43:02;4.65;;;1.08;;
78169;SDS011;67412;49.892;14.490;2023-11-21T07:45:28;3.22;;;1.20;;
78169;SDS011;67412;49.892;14.490;2023-11-21T07:47:53;3.15;;;1.15;;
78169;SDS011;67412;49.892;14.490;2023-11-21T07:50:20;3.17;;;1.02;;
78169;SDS011;67412;49.892;14.490;2023-11-21T07:52:46;2.60;;;1.15;;
78169;SDS011;67412;49.892;14.490;2023-11-21T07:55:11;2.58;;;1.10;;
78169;SDS011;67412;49.892;14.490;2023-11-21T07:57:37;1.77;;;1.00;;
78169;SDS011;67412;49.892;14.490;2023-11-21T08:00:03;3.05;;;1.13;;
78169;SDS011;67412;49.892;14.490;2023-11-21T08:02:31;2.55;;;1.20;;
78169;SDS011;67412;49.892;14.490;2023-11-21T08:04:57;5.88;;;1.65;;
78169;SDS011;67412;49.892;14.490;2023-11-21T08:07:22;2.65;;;0.93;;
78169;SDS011;67412;49.892;14.490;2023-11-21T08:09:47;6.15;;;1.38;;
78169;SDS011;67412;49.892;14.490;2023-11-21T08:12:15;3.30;;;0.95;;
78169;SDS011;67412;49.892;14.490;2023-11-21T08:14:40;5.32;;;1.45;;
78169;SDS011;67412;49.892;14.490;2023-11-21T08:17:05;3.65;;;1.10;;
78169;SDS011;67412;49.892;14.490;2023-11-21T08:19:31;7.00;;;1.50;;
78169;SDS011;67412;49.892;14.490;2023-11-21T08:21:58;5.60;;;1.50;;
78169;SDS011;67412;49.892;14.490;2023-11-21T08:24:24;3.00;;;1.23;;
78169;SDS011;67412;49.892;14.490;2023-11-21T08:26:49;3.85;;;1.58;;
78169;SDS011;67412;49.892;14.490;2023-11-21T08:29:16;6.50;;;1.42;;
78169;SDS011;67412;49.892;14.490;2023-11-21T08:31:41;5.30;;;1.63;;
78169;SDS011;67412;49.892;14.490;2023-11-21T08:34:07;3.15;;;1.20;;
78169;SDS011;67412;49.892;14.490;2023-11-21T08:36:33;2.55;;;1.00;;
78169;SDS011;67412;49.892;14.490;2023-11-21T08:38:59;2.15;;;1.00;;
78169;SDS011;67412;49.892;14.490;2023-11-21T08:41:24;3.97;;;1.30;;
78169;SDS011;67412;49.892;14.490;2023-11-21T08:43:50;5.88;;;1.60;;
78169;SDS011;67412;49.892;14.490;2023-11-21T08:46:15;4.85;;;1.48;;
78169;SDS011;67412;49.892;14.490;2023-11-21T08:48:42;4.97;;;1.50;;
78169;SDS011;67412;49.892;14.490;2023-11-21T08:51:09;5.10;;;1.20;;
78169;SDS011;67412;49.892;14.490;2023-11-21T08:53:36;4.53;;;1.45;;
78169;SDS011;67412;49.892;14.490;2023-11-21T08:56:02;5.68;;;1.90;;
78169;SDS011;67412;49.892;14.490;2023-11-21T08:58:29;5.97;;;2.03;;
78169;SDS011;67412;49.892;14.490;2023-11-21T09:00:55;5.70;;;1.73;;
78169;SDS011;67412;49.892;14.490;2023-11-21T09:03:21;3.92;;;1.52;;
78169;SDS011;67412;49.892;14.490;2023-11-21T09:05:46;7.22;;;1.90;;
78169;SDS011;67412;49.892;14.490;2023-11-21T09:08:12;3.88;;;1.40;;
78169;SDS011;67412;49.892;14.490;2023-11-21T09:10:37;3.15;;;1.17;;
78169;SDS011;67412;49.892;14.490;2023-11-21T09:15:29;3.97;;;1.10;;
78169;SDS011;67412;49.892;14.490;2023-11-21T09:17:55;3.53;;;1.30;;
78169;SDS011;67412;49.892;14.490;2023-11-21T09:20:21;6.82;;;1.33;;
78169;SDS011;67412;49.892;14.490;2023-11-21T09:22:48;4.63;;;1.05;;
78169;SDS011;67412;49.892;14.490;2023-11-21T09:25:13;4.53;;;1.52;;
78169;SDS011;67412;49.892;14.490;2023-11-21T09:27:39;6.72;;;1.65;;
78169;SDS011;67412;49.892;14.490;2023-11-21T09:30:04;5.85;;;1.65;;
78169;SDS011;67412;49.892;14.490;2023-11-21T09:32:33;5.63;;;1.83;;
78169;SDS011;67412;49.892;14.490;2023-11-21T09:35:00;4.60;;;1.35;;
78169;SDS011;67412;49.892;14.490;2023-11-21T09:39:52;3.67;;;1.23;;
78169;SDS011;67412;49.892;14.490;2023-11-21T09:42:20;3.17;;;0.98;;
78169;SDS011;67412;49.892;14.490;2023-11-21T09:44:54;1.75;;;0.88;;
78169;SDS011;67412;49.892;14.490;2023-11-21T09:47:26;3.88;;;1.08;;
78169;SDS011;67412;49.892;14.490;2023-11-21T09:49:52;3.55;;;1.00;;
78169;SDS011;67412;49.892;14.490;2023-11-21T09:52:24;3.22;;;1.25;;
78169;SDS011;67412;49.892;14.490;2023-11-21T09:54:51;4.75;;;1.20;;
78169;SDS011;67412;49.892;14.490;2023-11-21T09:57:19;3.50;;;1.40;;
78169;SDS011;67412;49.892;14.490;2023-11-21T09:59:46;3.13;;;1.40;;
78169;SDS011;67412;49.892;14.490;2023-11-21T10:02:15;4.05;;;1.27;;
78169;SDS011;67412;49.892;14.490;2023-11-21T10:04:43;3.53;;;1.20;;
78169;SDS011;67412;49.892;14.490;2023-11-21T10:07:10;2.70;;;1.05;;
78169;SDS011;67412;49.892;14.490;2023-11-21T10:09:37;4.13;;;1.35;;
78169;SDS011;67412;49.892;14.490;2023-11-21T10:12:03;4.05;;;1.60;;
78169;SDS011;67412;49.892;14.490;2023-11-21T10:14:33;5.15;;;1.30;;
78169;SDS011;67412;49.892;14.490;2023-11-21T10:17:00;4.07;;;1.58;;
78169;SDS011;67412;49.892;14.490;2023-11-21T10:19:25;4.18;;;1.42;;
78169;SDS011;67412;49.892;14.490;2023-11-21T10:21:52;5.40;;;1.17;;
78169;SDS011;67412;49.892;14.490;2023-11-21T10:24:19;4.38;;;1.70;;
78169;SDS011;67412;49.892;14.490;2023-11-21T10:26:44;3.17;;;1.10;;
78169;SDS011;67412;49.892;14.490;2023-11-21T10:29:14;5.03;;;1.48;;
78169;SDS011;67412;49.892;14.490;2023-11-21T10:31:42;3.85;;;1.40;;
78169;SDS011;67412;49.892;14.490;2023-11-21T10:34:14;5.93;;;1.40;;
78169;SDS011;67412;49.892;14.490;2023-11-21T10:36:43;2.03;;;1.08;;
78169;SDS011;67412;49.892;14.490;2023-11-21T10:39:09;2.90;;;1.23;;
78169;SDS011;67412;49.892;14.490;2023-11-21T10:41:38;3.03;;;1.20;;
78169;SDS011;67412;49.892;14.490;2023-11-21T10:44:04;4.53;;;1.40;;
78169;SDS011;67412;49.892;14.490;2023-11-21T10:46:32;5.22;;;1.40;;
78169;SDS011;67412;49.892;14.490;2023-11-21T10:48:57;5.85;;;1.55;;
78169;SDS011;67412;49.892;14.490;2023-11-21T10:51:23;3.30;;;0.95;;
78169;SDS011;67412;49.892;14.490;2023-11-21T10:53:51;3.15;;;1.17;;
78169;SDS011;67412;49.892;14.490;2023-11-21T10:56:18;5.15;;;1.52;;
78169;SDS011;67412;49.892;14.490;2023-11-21T10:58:46;4.60;;;1.40;;
78169;SDS011;67412;49.892;14.490;2023-11-21T11:01:17;6.57;;;2.00;;
78169;SDS011;67412;49.892;14.490;2023-11-21T11:03:46;3.95;;;1.30;;
78169;SDS011;67412;49.892;14.490;2023-11-21T11:06:12;3.13;;;1.02;;
78169;SDS011;67412;49.892;14.490;2023-11-21T11:08:38;7.90;;;1.27;;
78169;SDS011;67412;49.892;14.490;2023-11-21T11:11:04;1.75;;;0.73;;
78169;SDS011;67412;49.892;14.490;2023-11-21T11:13:30;3.25;;;1.10;;
78169;SDS011;67412;49.892;14.490;2023-11-21T11:16:00;4.63;;;1.95;;
78169;SDS011;67412;49.892;14.490;2023-11-21T11:18:32;4.28;;;1.60;;
78169;SDS011;67412;49.892;14.490;2023-11-21T11:21:22;3.05;;;1.10;;
78169;SDS011;67412;49.892;14.490;2023-11-21T11:24:20;3.90;;;0.95;;
78169;SDS011;67412;49.892;14.490;2023-11-21T11:37:44;3.03;;;1.20;;
78169;SDS011;67412;49.892;14.490;2023-11-21T11:40:12;6.28;;;1.67;;
78169;SDS011;67412;49.892;14.490;2023-11-21T11:42:38;3.45;;;1.30;;
78169;SDS011;67412;49.892;14.490;2023-11-21T11:45:26;4.82;;;1.65;;
78169;SDS011;67412;49.892;14.490;2023-11-21T11:47:56;6.65;;;1.58;;
78169;SDS011;67412;49.892;14.490;2023-11-21T11:50:22;2.58;;;1.30;;
78169;SDS011;67412;49.892;14.490;2023-11-21T11:52:48;5.10;;;1.30;;
78169;SDS011;67412;49.892;14.490;2023-11-21T11:55:17;3.92;;;1.90;;
78169;SDS011;67412;49.892;14.490;2023-11-21T11:57:43;5.60;;;1.50;;
78169;SDS011;67412;49.892;14.490;2023-11-21T12:00:15;5.40;;;1.50;;
78169;SDS011;67412;49.892;14.490;2023-11-21T12:02:41;4.35;;;1.23;;
78169;SDS011;67412;49.892;14.490;2023-11-21T12:05:12;6.05;;;1.77;;
78169;SDS011;67412;49.892;14.490;2023-11-21T12:07:46;6.95;;;1.95;;
78169;SDS011;67412;49.892;14.490;2023-11-21T12:10:12;3.63;;;1.23;;
78169;SDS011;67412;49.892;14.490;2023-11-21T12:12:42;4.88;;;1.30;;
78169;SDS011;67412;49.892;14.490;2023-11-21T12:15:08;4.60;;;1.52;;
78169;SDS011;67412;49.892;14.490;2023-11-21T12:17:34;3.83;;;1.40;;
78169;SDS011;67412;49.892;14.490;2023-11-21T12:20:03;4.72;;;1.67;;
78169;SDS011;67412;49.892;14.490;2023-11-21T12:22:29;5.03;;;1.70;;
78169;SDS011;67412;49.892;14.490;2023-11-21T12:24:55;3.70;;;1.40;;
78169;SDS011;67412;49.892;14.490;2023-11-21T12:27:21;5.78;;;1.60;;
78169;SDS011;67412;49.892;14.490;2023-11-21T12:29:46;3.30;;;1.52;;
78169;SDS011;67412;49.892;14.490;2023-11-21T12:32:11;7.05;;;1.70;;
78169;SDS011;67412;49.892;14.490;2023-11-21T12:34:40;4.20;;;1.60;;
78169;SDS011;67412;49.892;14.490;2023-11-21T12:37:05;3.28;;;0.95;;
78169;SDS011;67412;49.892;14.490;2023-11-21T12:39:31;8.57;;;1.40;;
78169;SDS011;67412;49.892;14.490;2023-11-21T12:41:56;4.13;;;1.33;;
78169;SDS011;67412;49.892;14.490;2023-11-21T12:44:22;5.38;;;1.50;;
78169;SDS011;67412;49.892;14.490;2023-11-21T12:46:49;3.78;;;1.33;;
78169;SDS011;67412;49.892;14.490;2023-11-21T12:49:15;5.63;;;1.30;;
78169;SDS011;67412;49.892;14.490;2023-11-21T12:51:44;3.33;;;1.13;;
78169;SDS011;67412;49.892;14.490;2023-11-21T12:54:11;4.15;;;1.30;;
78169;SDS011;67412;49.892;14.490;2023-11-21T12:56:40;2.85;;;1.38;;
78169;SDS011;67412;49.892;14.490;2023-11-21T12:59:06;2.60;;;0.98;;
78169;SDS011;67412;49.892;14.490;2023-11-21T13:01:31;3.10;;;1.13;;
78169;SDS011;67412;49.892;14.490;2023-11-21T13:03:57;5.10;;;1.50;;
78169;SDS011;67412;49.892;14.490;2023-11-21T13:06:27;6.78;;;1.30;;
78169;SDS011;67412;49.892;14.490;2023-11-21T13:08:53;5.55;;;1.33;;
78169;SDS011;67412;49.892;14.490;2023-11-21T13:11:22;6.13;;;1.83;;
78169;SDS011;67412;49.892;14.490;2023-11-21T13:13:47;5.40;;;1.70;;
78169;SDS011;67412;49.892;14.490;2023-11-21T13:16:18;4.90;;;1.60;;
78169;SDS011;67412;49.892;14.490;2023-11-21T13:18:45;3.65;;;1.50;;
78169;SDS011;67412;49.892;14.490;2023-11-21T13:21:11;5.78;;;1.60;;
78169;SDS011;67412;49.892;14.490;2023-11-21T13:23:41;5.65;;;1.73;;
78169;SDS011;67412;49.892;14.490;2023-11-21T13:26:07;8.00;;;1.98;;
78169;SDS011;67412;49.892;14.490;2023-11-21T13:28:34;5.38;;;1.73;;
78169;SDS011;67412;49.892;14.490;2023-11-21T13:31:03;4.93;;;1.75;;
78169;SDS011;67412;49.892;14.490;2023-11-21T13:33:35;5.50;;;1.50;;
78169;SDS011;67412;49.892;14.490;2023-11-21T13:36:03;5.63;;;1.88;;
78169;SDS011;67412;49.892;14.490;2023-11-21T13:38:32;5.15;;;1.85;;
78169;SDS011;67412;49.892;14.490;2023-11-21T13:43:25;6.03;;;1.50;;
78169;SDS011;67412;49.892;14.490;2023-11-21T13:45:51;6.15;;;1.83;;
78169;SDS011;67412;49.892;14.490;2023-11-21T13:48:25;4.30;;;1.70;;
78169;SDS011;67412;49.892;14.490;2023-11-21T13:50:56;5.72;;;1.70;;
78169;SDS011;67412;49.892;14.490;2023-11-21T13:53:38;5.43;;;1.90;;
78169;SDS011;67412;49.892;14.490;2023-11-21T13:56:05;6.18;;;1.63;;
78169;SDS011;67412;49.892;14.490;2023-11-21T13:58:30;7.53;;;2.22;;
78169;SDS011;67412;49.892;14.490;2023-11-21T14:01:25;6.82;;;1.70;;
78169;SDS011;67412;49.892;14.490;2023-11-21T14:03:54;3.42;;;1.30;;
78169;SDS011;67412;49.892;14.490;2023-11-21T14:06:26;5.50;;;1.25;;
78169;SDS011;67412;49.892;14.490;2023-11-21T14:08:59;4.70;;;1.52;;
78169;SDS011;67412;49.892;14.490;2023-11-21T14:11:30;5.13;;;1.60;;
78169;SDS011;67412;49.892;14.490;2023-11-21T14:13:55;4.03;;;1.30;;
78169;SDS011;67412;49.892;14.490;2023-11-21T14:16:20;4.57;;;1.75;;
78169;SDS011;67412;49.892;14.490;2023-11-21T14:18:46;5.40;;;1.45;;
78169;SDS011;67412;49.892;14.490;2023-11-21T14:21:23;3.50;;;1.30;;
78169;SDS011;67412;49.892;14.490;2023-11-21T14:23:49;5.10;;;1.08;;
78169;SDS011;67412;49.892;14.490;2023-11-21T14:26:14;5.30;;;1.60;;
78169;SDS011;67412;49.892;14.490;2023-11-21T14:28:41;5.85;;;2.28;;
78169;SDS011;67412;49.892;14.490;2023-11-21T14:31:07;5.28;;;1.38;;
78169;SDS011;67412;49.892;14.490;2023-11-21T14:33:33;7.13;;;2.10;;
78169;SDS011;67412;49.892;14.490;2023-11-21T14:35:58;5.85;;;1.60;;
78169;SDS011;67412;49.892;14.490;2023-11-21T14:38:23;7.38;;;2.10;;
78169;SDS011;67412;49.892;14.490;2023-11-21T14:40:49;5.32;;;1.60;;
78169;SDS011;67412;49.892;14.490;2023-11-21T14:43:14;4.93;;;1.73;;
78169;SDS011;67412;49.892;14.490;2023-11-21T14:45:40;6.60;;;1.65;;
78169;SDS011;67412;49.892;14.490;2023-11-21T14:48:06;6.43;;;1.98;;
78169;SDS011;67412;49.892;14.490;2023-11-21T14:50:33;4.53;;;1.77;;